Nyrad, Denmark
Current Conditions -  °F | °C
As of 4:50 AM on Sunday 25 Jan 2015 (Local Time) from EKRK Reporting Station
Moderate Fog Moderate Fog  
Wind Chill: 28°   Ceiling: Unl
Heat Index: 28°   Visibility: 0.15mi
Dew Point: 28°   Wind: 3mph
Humidity: 100%   Direction: 260°W
Pressure: 30.06"   Gusts: NA
Location:  55.01°N, 11.96°E
Report Text: EKRK 250350Z AUTO 26003KT 0250NDV R11/1200VP1500D R29/1000VP1500DFZFG NCD M02/M02 Q1018 R03/750324 R11/750336
Loading
Personal Weather Stations






























Interactive Weather Map New forecast layout! Learn more

10-Day Weather Forecast

Advertisements
Track Severe Weather on mobile